Time;durP1;ratioP1;P1;durP2;ratioP2;P2;SDS_P1;SDS_P2;PMS_P1;PMS_P2;Temp;Humidity;BMP_temperature;BMP_pressure;BME280_temperature;BME280_humidity;BME280_pressure;Samples;Min_cycle;Max_cycle;Signal;HPM_P1;HPM_P2
2022/03/22 00:00:19;;;;;;;;;35.00;29.50;;;;;12.36;56.35;102445.47;5073075;28;45587;-73
2022/03/22 00:02:45;;;;;;;;;32.50;31.00;;;;;12.01;55.70;102373.25;5068622;27;45305;-73
2022/03/22 00:05:10;;;;;;;;;33.50;27.50;;;;;12.43;55.62;102455.47;5078262;28;46122;-73
2022/03/22 00:07:36;;;;;;;;;28.50;28.50;;;;;12.25;56.12;102427.34;5071735;28;45488;-73
2022/03/22 00:10:02;;;;;;;;;25.25;24.00;;;;;12.41;55.55;102454.53;5076770;28;45300;-73
2022/03/22 00:12:28;;;;;;;;;30.25;28.25;;;;;12.26;55.88;102442.38;5080282;28;45363;-73
2022/03/22 00:14:54;;;;;;;;;29.25;27.50;;;;;12.34;55.48;102463.94;5080538;28;45331;-74
2022/03/22 00:17:21;;;;;;;;;27.25;24.50;;;;;12.32;56.38;102461.25;5075131;28;47556;-72
2022/03/22 00:19:47;;;;;;;;;35.50;32.25;;;;;12.30;55.99;102462.91;5079185;28;45496;-73
2022/03/22 00:22:14;;;;;;;;;28.00;28.00;;;;;12.21;56.40;102450.97;5074914;27;45527;-72
2022/03/22 00:24:40;;;;;;;;;29.25;24.50;;;;;12.20;56.29;102460.69;5078891;28;45511;-74
2022/03/22 00:27:06;;;;;;;;;24.00;23.25;;;;;12.10;56.36;102447.88;5075383;28;45851;-74
2022/03/22 00:29:31;;;;;;;;;31.25;31.00;;;;;12.07;56.54;102459.25;5079377;28;45440;-74
2022/03/22 00:31:57;;;;;;;;;30.00;27.25;;;;;12.10;56.63;102466.44;5076830;28;45365;-74
2022/03/22 00:34:24;;;;;;;;;27.50;24.75;;;;;11.96;56.33;102448.97;5077569;28;46046;-75
2022/03/22 00:36:50;;;;;;;;;38.75;30.75;;;;;11.74;57.41;102426.78;5077788;28;45319;-74
2022/03/22 00:39:16;;;;;;;;;31.25;27.00;;;;;11.80;55.17;102445.63;5078025;28;45290;-72
2022/03/22 00:41:41;;;;;;;;;25.25;23.50;;;;;11.80;57.20;102464.16;5073665;28;45410;-74
2022/03/22 00:44:08;;;;;;;;;34.50;31.50;;;;;11.85;56.77;102477.63;5081193;28;45201;-74
2022/03/22 00:46:36;;;;;;;;;30.50;27.00;;;;;11.80;57.76;102469.47;5071396;28;47191;-74
2022/03/22 00:49:02;;;;;;;;;29.25;25.25;;;;;11.48;56.76;102414.97;5081413;27;45366;-74
2022/03/22 00:51:28;;;;;;;;;31.75;27.25;;;;;11.75;57.67;102476.28;5077543;28;45345;-74
2022/03/22 00:53:53;;;;;;;;;27.75;24.75;;;;;11.73;57.50;102466.44;5081023;28;45263;-74
2022/03/22 00:56:19;;;;;;;;;37.25;28.00;;;;;11.69;55.39;102467.16;5080323;27;45439;-74
2022/03/22 00:58:44;;;;;;;;;37.00;29.25;;;;;11.66;56.85;102475.84;5068505;27;45318;-74
2022/03/22 01:01:09;;;;;;;;;29.75;27.25;;;;;11.65;58.07;102476.72;5075887;27;45346;-73
2022/03/22 01:03:35;;;;;;;;;31.00;29.00;;;;;11.65;58.03;102474.97;5067372;28;45514;-73
2022/03/22 01:06:01;;;;;;;;;28.50;26.00;;;;;11.55;58.06;102459.47;5075458;28;46073;-73
2022/03/22 01:08:29;;;;;;;;;25.50;25.50;;;;;11.63;58.22;102478.38;5068512;27;45142;-73
2022/03/22 01:10:54;;;;;;;;;28.25;25.00;;;;;11.62;56.29;102474.81;5084235;27;45320;-73
2022/03/22 01:13:21;;;;;;;;;37.50;29.50;;;;;11.48;57.64;102448.50;5068840;27;45379;-73
2022/03/22 01:15:47;;;;;;;;;27.00;25.50;;;;;11.45;58.20;102448.34;5079941;28;45473;-73
2022/03/22 01:18:13;;;;;;;;;23.75;23.25;;;;;11.59;57.44;102474.66;5070085;27;45479;-74
2022/03/22 01:20:41;;;;;;;;;31.50;25.50;;;;;11.32;56.96;102425.72;5080074;28;45343;-74
2022/03/22 01:23:08;;;;;;;;;28.75;25.50;;;;;11.16;56.73;102409.09;5071431;28;45328;-74
2022/03/22 01:25:35;;;;;;;;;26.00;24.25;;;;;11.46;57.85;102468.72;5079532;28;45406;-74
2022/03/22 01:28:04;;;;;;;;;27.25;25.50;;;;;11.42;57.16;102468.56;5071204;28;45446;-74
2022/03/22 01:30:30;;;;;;;;;22.75;20.75;;;;;11.34;57.83;102464.66;5079740;28;45496;-74
2022/03/22 01:32:56;;;;;;;;;29.00;24.25;;;;;11.36;57.65;102475.31;5078633;28;45878;-74
2022/03/22 01:35:23;;;;;;;;;28.25;26.50;;;;;11.27;57.72;102470.47;5079630;27;45385;-74
2022/03/22 01:37:49;;;;;;;;;27.50;23.50;;;;;11.30;57.82;102472.38;5073620;28;45322;-73
2022/03/22 01:40:17;;;;;;;;;27.50;24.25;;;;;11.10;58.05;102443.19;5079535;28;45339;-73
2022/03/22 01:42:43;;;;;;;;;34.75;25.00;;;;;11.15;57.54;102465.50;5075463;28;45250;-72
2022/03/22 01:45:10;;;;;;;;;30.00;25.75;;;;;11.09;57.63;102454.63;5079857;28;45397;-72
2022/03/22 01:47:37;;;;;;;;;25.25;22.00;;;;;11.08;58.35;102457.19;5072059;28;45398;-72
2022/03/22 01:50:08;;;;;;;;;29.75;27.25;;;;;10.97;57.11;102440.78;5080502;28;45255;-73
2022/03/22 01:52:37;;;;;;;;;36.25;28.00;;;;;11.04;57.61;102452.59;5078436;28;45792;-73
2022/03/22 01:55:03;;;;;;;;;30.00;25.50;;;;;11.07;57.43;102461.56;5075012;28;46737;-73
2022/03/22 01:57:30;;;;;;;;;26.50;23.25;;;;;11.03;58.44;102459.59;5068401;28;45244;-73
2022/03/22 01:59:56;;;;;;;;;22.00;21.50;;;;;10.95;58.00;102448.66;5078420;27;45268;-74
2022/03/22 02:07:57;;;;;;;;;29.75;25.50;;;;;10.90;58.78;102455.47;5062617;28;45314;-74
2022/03/22 02:10:22;;;;;;;;;25.00;24.50;;;;;10.82;58.76;102445.34;5077805;28;45275;-74
2022/03/22 02:12:47;;;;;;;;;26.75;25.25;;;;;10.58;58.86;102405.34;5069089;28;45276;-73
2022/03/22 02:15:13;;;;;;;;;30.50;29.00;;;;;10.73;57.29;102429.91;5078936;27;46255;-74
2022/03/22 02:17:40;;;;;;;;;28.00;23.00;;;;;10.75;58.56;102437.09;5070638;28;45355;-74
2022/03/22 02:20:06;;;;;;;;;36.50;27.50;;;;;10.81;59.38;102452.38;5079739;28;45255;-74
2022/03/22 02:22:49;;;;;;;;;28.50;25.50;;;;;10.80;58.37;102447.88;5072049;28;45352;-74
2022/03/22 02:25:15;;;;;;;;;29.25;24.50;;;;;10.81;57.57;102454.06;5078139;28;46274;-74
2022/03/22 02:27:44;;;;;;;;;32.75;26.25;;;;;10.75;59.25;102438.81;5072934;28;45143;-74
2022/03/22 02:30:15;;;;;;;;;29.75;25.25;;;;;10.69;56.87;102435.84;5078999;28;45445;-74
2022/03/22 02:32:49;;;;;;;;;31.25;28.25;;;;;10.78;57.73;102451.28;5073489;28;45257;-74
2022/03/22 02:35:14;;;;;;;;;25.75;22.75;;;;;10.69;58.17;102439.41;5075796;28;46026;-73
2022/03/22 02:37:40;;;;;;;;;31.00;26.00;;;;;10.77;59.15;102455.66;5070127;28;45388;-73
2022/03/22 02:40:09;;;;;;;;;25.75;23.50;;;;;10.74;57.72;102439.66;5078581;28;45427;-73
2022/03/22 02:42:35;;;;;;;;;29.25;23.75;;;;;10.61;57.97;102416.97;5085280;27;45852;-74
2022/03/22 02:45:00;;;;;;;;;34.25;27.50;;;;;10.63;59.30;102428.53;5076026;28;46971;-74
2022/03/22 02:47:26;;;;;;;;;29.25;25.25;;;;;10.67;59.29;102437.50;5070328;28;45287;-73
2022/03/22 02:49:51;;;;;;;;;26.00;25.00;;;;;10.75;58.59;102466.19;5079396;28;45537;-73
2022/03/22 02:52:16;;;;;;;;;21.25;21.25;;;;;10.75;58.08;102465.25;5069692;27;45383;-73
2022/03/22 02:54:42;;;;;;;;;27.75;25.75;;;;;10.74;58.29;102460.81;5078128;27;45312;-73
2022/03/22 02:57:07;;;;;;;;;30.50;27.00;;;;;10.55;58.00;102429.88;5077013;28;45288;-72
2022/03/22 02:59:32;;;;;;;;;30.50;25.75;;;;;10.53;58.37;102429.81;5077074;28;45200;-74
2022/03/22 03:01:58;;;;;;;;;28.50;22.50;;;;;10.67;57.70;102464.91;5074235;28;45250;-73
2022/03/22 03:04:24;;;;;;;;;30.75;25.50;;;;;10.65;58.51;102466.53;5078373;28;46115;-73
2022/03/22 03:06:49;;;;;;;;;33.50;30.25;;;;;10.48;58.51;102444.53;5072889;28;45327;-74
2022/03/22 03:09:15;;;;;;;;;33.50;29.25;;;;;10.57;58.36;102467.88;5071259;28;45261;-73
2022/03/22 03:11:40;;;;;;;;;31.00;28.00;;;;;10.46;57.33;102458.50;5075031;28;45237;-73
2022/03/22 03:16:50;;;;;;;;;29.75;27.00;;;;;10.43;58.31;102480.41;5075255;28;45500;-73
2022/03/22 03:19:15;;;;;;;;;29.00;27.50;;;;;10.22;58.56;102450.16;5072761;28;45271;-74
2022/03/22 03:21:40;;;;;;;;;27.50;23.75;;;;;10.34;58.96;102479.94;5076331;28;45303;-73
2022/03/22 03:24:06;;;;;;;;;31.75;26.00;;;;;10.31;59.37;102477.13;5072298;28;45291;-73
2022/03/22 03:26:31;;;;;;;;;26.75;21.25;;;;;9.93;58.36;102409.91;5077533;28;45788;-73
2022/03/22 03:28:57;;;;;;;;;23.25;23.25;;;;;10.29;58.32;102482.31;5072572;28;45295;-73
2022/03/22 03:31:23;;;;;;;;;25.75;24.00;;;;;10.28;57.97;102491.09;5077845;28;45999;-74
2022/03/22 03:33:48;;;;;;;;;29.25;26.25;;;;;10.24;58.06;102474.94;5072735;27;46559;-73
2022/03/22 03:36:14;;;;;;;;;30.25;25.50;;;;;10.07;57.00;102448.53;5071914;28;45405;-73
2022/03/22 03:38:42;;;;;;;;;28.50;23.25;;;;;10.19;57.30;102471.13;5082295;27;45313;-73
2022/03/22 03:43:53;;;;;;;;;25.25;21.75;;;;;10.24;56.97;102481.13;5082453;28;45173;-73
2022/03/22 03:49:19;;;;;;;;;26.50;24.00;;;;;10.13;56.58;102461.16;5020367;28;45540;-74
2022/03/22 03:51:44;;;;;;;;;26.25;22.00;;;;;10.24;56.39;102486.41;5060728;27;45760;-73
2022/03/22 03:54:10;;;;;;;;;25.50;21.25;;;;;10.27;56.10;102478.69;5080500;28;47097;-74
2022/03/22 03:56:35;;;;;;;;;29.25;22.75;;;;;10.07;55.40;102445.00;5068126;27;45499;-73
2022/03/22 03:59:01;;;;;;;;;26.25;21.50;;;;;10.24;56.25;102469.66;5081307;27;45487;-73
2022/03/22 04:01:26;;;;;;;;;24.75;24.25;;;;;10.03;55.90;102435.09;5076783;27;45382;-73
2022/03/22 04:03:51;;;;;;;;;28.50;26.25;;;;;10.32;55.73;102489.50;5069524;27;45585;-74
2022/03/22 04:06:17;;;;;;;;;47.50;38.00;;;;;10.19;55.81;102463.22;5076893;28;46520;-73
2022/03/22 04:08:42;;;;;;;;;26.50;24.25;;;;;10.08;55.49;102444.16;5081926;28;45208;-73
2022/03/22 04:11:07;;;;;;;;;28.25;22.50;;;;;10.35;55.95;102492.31;5079659;28;45256;-73
2022/03/22 04:13:35;;;;;;;;;24.75;20.75;;;;;10.33;56.00;102495.69;5080477;28;48256;-73
2022/03/22 04:16:00;;;;;;;;;27.00;20.75;;;;;10.29;55.35;102482.31;5073592;28;45340;-73
2022/03/22 04:18:26;;;;;;;;;29.00;25.50;;;;;10.34;54.80;102498.44;5072384;27;45208;-73
2022/03/22 04:20:52;;;;;;;;;19.50;19.00;;;;;10.37;55.01;102497.69;5080799;28;45155;-73
2022/03/22 04:23:18;;;;;;;;;28.25;26.25;;;;;9.90;55.38;102417.69;5073264;27;46472;-73
2022/03/22 04:25:43;;;;;;;;;26.25;22.75;;;;;10.14;55.35;102456.78;5080463;28;45425;-73
2022/03/22 04:33:36;;;;;;;;;22.50;22.00;;;;;10.15;54.46;102469.19;5075252;28;45853;-73
2022/03/22 04:36:02;;;;;;;;;26.00;22.00;;;;;9.90;54.19;102428.25;5080556;28;45440;-74
2022/03/22 04:38:28;;;;;;;;;30.00;26.25;;;;;10.07;54.54;102464.38;5080174;28;45339;-73
2022/03/22 04:40:53;;;;;;;;;26.00;23.75;;;;;10.10;55.29;102487.41;5074033;28;46032;-73
2022/03/22 04:43:18;;;;;;;;;24.25;20.00;;;;;10.18;54.64;102498.41;5081638;27;45397;-73
2022/03/22 04:45:44;;;;;;;;;28.25;23.25;;;;;10.14;55.47;102502.63;5078309;27;45363;-73
2022/03/22 04:48:09;;;;;;;;;25.00;21.00;;;;;9.94;54.97;102479.50;5075020;28;45359;-73
2022/03/22 04:50:35;;;;;;;;;22.25;22.25;;;;;10.06;55.65;102504.84;5079179;28;45299;-73
2022/03/22 04:58:16;;;;;;;;;22.50;21.25;;;;;9.97;54.50;102516.63;5067676;28;45224;-74
2022/03/22 05:00:41;;;;;;;;;27.00;23.25;;;;;9.89;54.70;102500.41;5077054;28;47118;-73
2022/03/22 05:03:08;;;;;;;;;22.25;19.75;;;;;9.79;55.00;102493.69;5084250;27;47353;-73
2022/03/22 05:08:18;;;;;;;;;27.25;22.00;;;;;9.71;55.29;102471.22;5070418;28;45451;-72
2022/03/22 05:10:43;;;;;;;;;24.00;21.00;;;;;9.75;54.48;102481.16;5078717;28;45347;-72
2022/03/22 05:13:09;;;;;;;;;28.00;25.25;;;;;9.84;54.13;102493.94;5070253;28;45327;-72
2022/03/22 05:15:34;;;;;;;;;24.25;23.25;;;;;10.03;54.58;102525.81;5079967;28;45814;-72
2022/03/22 05:18:01;;;;;;;;;28.00;25.50;;;;;9.92;54.86;102510.22;5071063;27;45357;-74
2022/03/22 05:20:27;;;;;;;;;28.00;24.25;;;;;9.77;54.30;102484.75;5080008;28;45465;-74
2022/03/22 05:22:52;;;;;;;;;32.25;27.00;;;;;9.91;54.13;102511.94;5072167;27;45244;-74
2022/03/22 05:25:18;;;;;;;;;27.00;25.25;;;;;9.99;54.75;102544.06;5079832;28;45233;-73
2022/03/22 05:27:43;;;;;;;;;20.75;19.75;;;;;9.85;54.91;102531.00;5073606;28;45395;-74
2022/03/22 05:30:09;;;;;;;;;26.75;24.25;;;;;9.90;54.64;102547.09;5080714;28;45438;-73
2022/03/22 05:32:35;;;;;;;;;33.50;22.00;;;;;9.77;55.33;102520.84;5075299;28;46385;-73
2022/03/22 05:35:00;;;;;;;;;22.50;21.00;;;;;9.63;55.32;102509.50;5081042;28;45356;-73
2022/03/22 05:37:26;;;;;;;;;22.50;21.25;;;;;9.80;54.94;102539.47;5080905;28;46489;-73
2022/03/22 05:39:52;;;;;;;;;22.00;19.25;;;;;9.88;54.57;102550.47;5080355;27;45510;-73
2022/03/22 05:42:17;;;;;;;;;24.00;21.00;;;;;9.90;54.56;102551.50;5071457;27;45377;-73
2022/03/22 05:44:43;;;;;;;;;26.00;21.50;;;;;9.78;54.44;102527.97;5078430;28;45309;-73
2022/03/22 05:47:10;;;;;;;;;23.25;19.00;;;;;9.93;54.65;102551.66;5072095;28;45365;-73
2022/03/22 05:49:38;;;;;;;;;24.50;20.25;;;;;9.74;54.25;102526.84;5078459;28;46192;-73
2022/03/22 05:52:04;;;;;;;;;24.00;23.75;;;;;9.80;54.83;102537.78;5070625;28;45270;-73
2022/03/22 05:54:30;;;;;;;;;24.50;21.50;;;;;9.93;54.70;102564.84;5077950;28;45396;-73
2022/03/22 05:56:55;;;;;;;;;28.50;25.00;;;;;9.92;53.88;102569.25;5067975;27;45320;-73
2022/03/22 05:59:21;;;;;;;;;27.50;23.75;;;;;9.82;54.33;102553.69;5079846;28;45222;-73
2022/03/22 06:01:46;;;;;;;;;25.00;25.00;;;;;9.77;54.55;102548.16;5077504;28;48180;-73
2022/03/22 06:04:12;;;;;;;;;28.00;20.75;;;;;9.90;54.51;102570.88;5079910;28;45276;-73
2022/03/22 06:06:39;;;;;;;;;25.50;22.25;;;;;9.91;54.94;102577.06;5075990;27;45554;-73
2022/03/22 06:09:05;;;;;;;;;30.00;27.75;;;;;9.89;54.07;102577.00;5070134;28;45251;-73
2022/03/22 06:11:34;;;;;;;;;32.00;28.00;;;;;9.63;54.17;102533.28;5068241;28;46711;-73
2022/03/22 06:14:00;;;;;;;;;28.75;25.00;;;;;9.32;54.71;102480.50;5070055;28;45320;-74
2022/03/22 06:16:25;;;;;;;;;25.25;22.75;;;;;9.83;55.03;102582.84;5071417;28;45363;-73
2022/03/22 06:18:50;;;;;;;;;29.25;29.25;;;;;9.84;54.89;102582.00;5070920;27;45259;-73
2022/03/22 06:21:16;;;;;;;;;30.00;27.00;;;;;9.47;54.89;102520.97;5067955;28;46955;-73
2022/03/22 06:23:41;;;;;;;;;28.25;24.50;;;;;9.54;54.13;102538.94;5077304;28;45288;-74
2022/03/22 06:26:07;;;;;;;;;28.75;24.50;;;;;9.78;54.14;102580.78;5077612;27;45457;-73
2022/03/22 06:28:32;;;;;;;;;33.50;27.25;;;;;9.89;54.42;102594.56;5072717;27;45522;-73
2022/03/22 06:30:57;;;;;;;;;26.25;25.00;;;;;9.82;54.08;102583.66;5078372;28;45400;-73
2022/03/22 06:33:24;;;;;;;;;28.25;28.25;;;;;9.93;54.47;102599.19;5077784;28;44824;-73
2022/03/22 06:35:50;;;;;;;;;31.25;28.00;;;;;9.95;54.38;102592.28;5075680;28;45321;-73
2022/03/22 06:38:15;;;;;;;;;31.25;28.75;;;;;9.94;54.28;102587.78;5073544;28;45453;-74
2022/03/22 06:40:41;;;;;;;;;45.00;36.25;;;;;9.81;54.45;102568.63;5076336;28;46231;-73
2022/03/22 06:43:14;;;;;;;;;27.50;26.25;;;;;10.06;54.52;102601.72;5072294;28;45351;-73
2022/03/22 06:45:40;;;;;;;;;47.50;40.00;;;;;9.99;53.69;102587.22;5076705;27;45435;-73
2022/03/22 06:48:06;;;;;;;;;26.50;26.50;;;;;9.96;54.19;102575.59;5071618;28;45355;-73
2022/03/22 06:50:33;;;;;;;;;31.25;28.25;;;;;10.16;53.42;102609.28;5077301;27;45414;-72
2022/03/22 06:52:59;;;;;;;;;38.25;35.50;;;;;9.99;53.66;102581.03;5070924;28;45352;-72
2022/03/22 06:55:25;;;;;;;;;31.25;29.50;;;;;10.14;53.45;102600.41;5075140;28;45306;-73
2022/03/22 06:57:51;;;;;;;;;33.25;28.25;;;;;10.12;53.42;102596.75;5068132;27;45433;-72
2022/03/22 07:00:18;;;;;;;;;33.25;30.00;;;;;10.24;53.51;102615.91;5072718;28;45319;-72
2022/03/22 07:02:44;;;;;;;;;28.75;28.00;;;;;10.33;53.38;102610.25;5067283;28;45363;-72
2022/03/22 07:05:11;;;;;;;;;26.00;26.00;;;;;10.42;52.80;102616.06;5073597;28;45449;-72
2022/03/22 07:07:36;;;;;;;;;39.25;28.00;;;;;10.32;52.84;102581.09;5069967;28;45473;-72
2022/03/22 07:10:03;;;;;;;;;31.50;27.75;;;;;10.10;52.54;102532.34;5075153;28;45365;-73
2022/03/22 07:12:29;;;;;;;;;29.00;26.00;;;;;10.61;52.19;102593.22;5082437;28;45325;-72
2022/03/22 07:14:55;;;;;;;;;27.00;19.25;;;;;10.72;51.75;102595.59;5082355;28;45322;-72
2022/03/22 07:17:21;;;;;;;;;31.25;27.25;;;;;10.72;51.98;102570.91;5078410;27;45472;-72
2022/03/22 07:19:47;;;;;;;;;28.00;25.75;;;;;11.04;52.12;102621.94;5082432;28;45511;-74
2022/03/22 07:22:12;;;;;;;;;33.75;26.75;;;;;11.15;51.70;102621.66;5079758;27;45297;-73
2022/03/22 07:24:37;;;;;;;;;30.25;26.75;;;;;11.24;51.09;102609.72;5082433;28;45496;-74
2022/03/22 07:27:04;;;;;;;;;31.25;28.25;;;;;11.43;51.13;102620.41;5096475;27;46228;-72
2022/03/22 07:29:30;;;;;;;;;34.25;29.75;;;;;11.50;50.54;102616.31;5082291;28;46075;-74
2022/03/22 07:31:57;;;;;;;;;32.00;24.50;;;;;11.55;50.31;102612.16;5074669;28;45445;-74
2022/03/22 07:34:23;;;;;;;;;30.25;27.25;;;;;11.54;49.82;102586.50;5082729;28;45240;-74
2022/03/22 07:36:51;;;;;;;;;29.75;26.00;;;;;11.80;50.20;102631.06;5077635;28;46270;-74
2022/03/22 07:39:16;;;;;;;;;32.50;30.25;;;;;11.77;49.16;102600.88;5082828;28;46270;-73
2022/03/22 07:41:43;;;;;;;;;34.00;28.00;;;;;11.86;49.72;102596.94;5075392;28;45330;-74
2022/03/22 07:44:12;;;;;;;;;31.25;30.25;;;;;11.94;47.95;102605.28;5086124;28;45434;-74
2022/03/22 07:46:37;;;;;;;;;37.75;35.25;;;;;12.20;48.92;102630.34;5075985;27;45457;-72
2022/03/22 07:54:31;;;;;;;;;33.00;29.00;;;;;12.61;47.44;102634.03;5084494;28;45473;-74
2022/03/22 07:56:56;;;;;;;;;28.00;25.75;;;;;12.75;49.32;102640.84;5073134;28;45490;-74
2022/03/22 07:59:24;;;;;;;;;31.75;27.25;;;;;12.86;47.99;102627.19;5085395;28;45456;-74
2022/03/22 08:01:50;;;;;;;;;36.00;30.75;;;;;12.99;47.06;102621.53;5079630;27;45173;-74
2022/03/22 08:04:16;;;;;;;;;33.00;32.25;;;;;12.85;47.00;102580.22;5074938;28;45278;-74
2022/03/22 08:06:42;;;;;;;;;32.00;30.75;;;;;13.12;46.32;102610.63;5072820;28;47332;-74
2022/03/22 08:09:08;;;;;;;;;32.50;28.75;;;;;13.31;46.31;102609.69;5076064;28;45571;-74
2022/03/22 08:11:33;;;;;;;;;37.75;32.00;;;;;13.24;45.57;102590.75;5082740;28;45379;-74
2022/03/22 08:14:00;;;;;;;;;28.75;25.50;;;;;13.62;45.91;102635.78;5076194;28;45355;-74
2022/03/22 08:16:26;;;;;;;;;31.00;28.50;;;;;13.79;44.96;102632.91;5084280;27;45481;-74
2022/03/22 08:18:52;;;;;;;;;34.00;32.00;;;;;13.95;44.34;102623.78;5084727;28;45341;-73
2022/03/22 08:21:17;;;;;;;;;38.75;31.50;;;;;13.98;43.69;102618.63;5084195;27;45312;-74
2022/03/22 08:23:43;;;;;;;;;37.50;32.25;;;;;14.15;44.23;102619.28;5072865;28;45400;-74
2022/03/22 08:26:08;;;;;;;;;37.50;33.00;;;;;14.29;43.29;102608.31;5080975;28;45482;-73
2022/03/22 08:28:33;;;;;;;;;29.50;27.75;;;;;14.68;43.14;102639.97;5075722;27;46762;-73
2022/03/22 08:30:59;;;;;;;;;37.00;31.00;;;;;14.80;43.07;102618.19;5080897;28;45268;-73
2022/03/22 08:33:24;;;;;;;;;34.00;28.25;;;;;15.12;44.73;102635.31;5077065;27;45217;-73
2022/03/22 08:35:52;;;;;;;;;34.50;29.75;;;;;14.97;43.02;102598.41;5077842;28;45263;-74
2022/03/22 08:38:19;;;;;;;;;33.00;31.50;;;;;15.36;41.06;102643.25;5075137;28;45187;-73
2022/03/22 08:40:45;;;;;;;;;29.75;28.00;;;;;15.37;41.25;102612.19;5079020;28;45465;-73
2022/03/22 08:43:11;;;;;;;;;34.75;29.00;;;;;15.71;41.60;102632.94;5080288;28;44746;-74
2022/03/22 08:45:37;;;;;;;;;29.00;27.50;;;;;15.75;39.85;102613.50;5079958;27;45888;-73
2022/03/22 08:48:09;;;;;;;;;31.25;30.00;;;;;15.86;39.57;102595.16;5073638;28;46095;-74
2022/03/22 08:50:35;;;;;;;;;35.50;28.75;;;;;16.18;40.80;102637.94;5079774;27;45519;-73
2022/03/22 08:53:01;;;;;;;;;33.75;30.75;;;;;16.14;41.15;102642.28;5072835;28;45314;-73
2022/03/22 08:55:26;;;;;;;;;37.25;31.00;;;;;16.11;39.27;102624.41;5076533;27;45544;-74
2022/03/22 08:57:52;;;;;;;;;30.25;28.00;;;;;16.13;40.66;102619.09;5079492;28;46990;-73
2022/03/22 09:00:20;;;;;;;;;30.50;26.00;;;;;16.22;36.52;102634.53;5079834;27;45448;-73
2022/03/22 09:02:49;;;;;;;;;30.50;28.75;;;;;16.26;36.97;102629.28;5070953;28;45433;-73
2022/03/22 09:08:01;;;;;;;;;22.25;21.00;;;;;16.17;34.41;102599.69;5064859;28;45559;-74
2022/03/22 09:10:27;;;;;;;;;26.00;22.25;;;;;16.39;32.66;102611.00;5079905;28;45290;-73
2022/03/22 09:12:54;;;;;;;;;21.67;18.67;;;;;16.50;34.29;102604.22;5071439;28;45309;-74
2022/03/22 09:15:22;;;;;;;;;23.25;22.00;;;;;16.56;32.72;102578.59;5079989;28;45434;-74
2022/03/22 09:17:49;;;;;;;;;25.00;22.25;;;;;17.03;29.76;102628.88;5072110;28;45385;-74
2022/03/22 09:20:15;;;;;;;;;25.33;20.00;;;;;17.11;33.90;102597.00;5079807;28;45463;-74
2022/03/22 09:22:43;;;;;;;;;23.67;23.67;;;;;17.42;29.97;102622.75;5073682;28;45316;-74
2022/03/22 09:25:09;;;;;;;;;21.67;20.33;;;;;17.63;30.68;102631.31;5079595;28;45264;-74
2022/03/22 09:27:34;;;;;;;;;21.33;20.33;;;;;17.66;28.72;102601.06;5074841;28;45272;-74
2022/03/22 09:30:00;;;;;;;;;20.67;17.33;;;;;18.04;27.54;102622.50;5079943;28;45197;-74
2022/03/22 09:32:25;;;;;;;;;18.00;16.67;;;;;17.95;28.66;102575.00;5074091;28;45411;-74
2022/03/22 09:34:52;;;;;;;;;17.00;17.00;;;;;18.27;28.67;102612.31;5077800;28;45988;-74
2022/03/22 09:37:17;;;;;;;;;15.00;13.00;;;;;18.47;28.97;102642.19;5071262;27;45421;-74
2022/03/22 09:39:45;;;;;;;;;21.67;19.33;;;;;18.52;25.94;102622.66;5077986;28;45665;-73
2022/03/22 09:42:11;;;;;;;;;18.00;17.33;;;;;18.78;28.33;102630.34;5069661;28;45511;-74
2022/03/22 09:44:37;;;;;;;;;18.00;18.00;;;;;18.89;26.66;102631.47;5080056;27;45266;-74
2022/03/22 09:47:04;;;;;;;;;19.00;18.67;;;;;18.91;26.80;102632.41;5070603;28;45335;-73
2022/03/22 09:49:29;;;;;;;;;13.67;13.67;;;;;18.65;26.74;102580.03;5070562;28;45254;-73
2022/03/22 09:51:56;;;;;;;;;21.33;18.00;;;;;18.70;24.90;102581.94;5065608;28;45220;-74
2022/03/22 09:54:25;;;;;;;;;21.67;18.33;;;;;18.74;27.10;102599.03;5069592;28;45327;-74
2022/03/22 09:56:52;;;;;;;;;18.00;16.00;;;;;18.72;23.29;102625.75;5068272;28;45476;-73
2022/03/22 09:59:17;;;;;;;;;19.33;17.00;;;;;18.33;22.97;102597.25;5067985;28;45845;-74
2022/03/22 10:01:44;;;;;;;;;34.67;31.33;;;;;18.83;26.71;102625.09;5074380;28;45293;-73
2022/03/22 10:04:13;;;;;;;;;20.67;19.33;;;;;19.00;24.63;102615.59;5070309;28;45450;-73
2022/03/22 10:06:48;;;;;;;;;18.67;14.67;;;;;19.00;21.69;102616.50;5077825;28;45420;-76
2022/03/22 10:09:13;;;;;;;;;53.25;43.50;;;;;19.05;26.27;102592.47;5070092;28;45375;-74
2022/03/22 10:11:41;;;;;;;;;29.00;25.67;;;;;19.25;21.38;102616.94;5071510;28;45511;-74
2022/03/22 10:14:08;;;;;;;;;24.67;20.67;;;;;19.45;25.68;102618.16;5071926;28;45519;-74
2022/03/22 10:16:45;;;;;;;;;22.67;18.00;;;;;19.54;25.93;102606.69;5078614;28;46093;-74
2022/03/22 10:19:21;;;;;;;;;18.67;18.00;;;;;19.67;21.69;102611.41;5071708;28;46254;-74
2022/03/22 10:21:47;;;;;;;;;18.00;14.33;;;;;19.77;25.95;102598.13;5077227;27;45527;-74
2022/03/22 10:24:15;;;;;;;;;20.33;20.33;;;;;20.16;25.05;102613.91;5074062;28;45221;-74
2022/03/22 10:26:44;;;;;;;;;18.67;16.67;;;;;20.28;23.64;102606.03;5077855;28;46044;-74
2022/03/22 10:29:11;;;;;;;;;24.00;24.00;;;;;20.51;23.45;102609.00;5074896;28;45158;-74
2022/03/22 10:31:40;;;;;;;;;21.33;20.00;;;;;20.76;23.18;102612.91;5078842;27;45302;-74
2022/03/22 10:34:07;;;;;;;;;23.67;22.00;;;;;20.74;24.59;102581.53;5074915;28;45359;-74
2022/03/22 10:36:37;;;;;;;;;23.33;22.00;;;;;20.91;22.64;102596.03;5070090;28;45490;-74
2022/03/22 10:39:06;;;;;;;;;30.33;28.33;;;;;21.12;24.09;102599.84;5076550;28;45465;-74
2022/03/22 10:41:37;;;;;;;;;22.67;19.00;;;;;21.24;23.88;102611.59;5070816;28;45497;-74
2022/03/22 10:44:03;;;;;;;;;16.00;16.00;;;;;21.29;24.66;102581.16;5077627;28;45964;-74
2022/03/22 10:46:29;;;;;;;;;19.00;18.00;;;;;21.45;24.17;102610.94;5070066;27;45931;-74
2022/03/22 10:49:08;;;;;;;;;16.00;16.00;;;;;21.29;23.96;102552.47;5078110;28;45349;-74
2022/03/22 10:51:49;;;;;;;;;20.33;19.33;;;;;21.65;21.92;102603.00;5071308;28;45402;-74
2022/03/22 10:54:18;;;;;;;;;22.67;18.00;;;;;21.77;19.72;102604.88;5067057;28;45335;-74
2022/03/22 10:56:51;;;;;;;;;19.67;17.33;;;;;21.77;23.93;102564.50;5066933;28;45495;-74
2022/03/22 10:59:19;;;;;;;;;15.00;14.33;;;;;21.96;23.45;102602.28;5078791;27;45367;-75
2022/03/22 11:01:46;;;;;;;;;17.00;17.00;;;;;22.15;23.85;102598.81;5074914;27;45674;-74
2022/03/22 11:04:16;;;;;;;;;14.00;12.00;;;;;22.33;23.77;102590.84;5069060;28;45415;-74
2022/03/22 11:06:43;;;;;;;;;16.00;14.67;;;;;22.40;21.05;102589.06;5076140;28;45654;-74
2022/03/22 11:09:09;;;;;;;;;18.33;17.00;;;;;22.37;21.75;102591.75;5069596;28;45249;-74
2022/03/22 11:11:37;;;;;;;;;19.33;17.33;;;;;22.31;20.49;102575.56;5071351;28;45241;-74
2022/03/22 11:14:03;;;;;;;;;15.67;15.67;;;;;22.47;21.11;102581.94;5068472;28;46653;-74
2022/03/22 11:16:32;;;;;;;;;22.00;19.33;;;;;22.50;19.65;102573.84;5077974;27;46427;-74
2022/03/22 11:19:00;;;;;;;;;22.67;22.67;;;;;22.53;19.40;102579.25;5070913;28;45399;-74
2022/03/22 11:21:26;;;;;;;;;22.33;17.67;;;;;22.36;19.29;102575.59;5071104;28;45300;-74
2022/03/22 11:24:03;;;;;;;;;23.00;23.00;;;;;22.51;20.67;102564.88;5071908;28;45430;-75
2022/03/22 11:26:28;;;;;;;;;18.33;17.00;;;;;21.88;19.93;102519.69;5078060;28;45761;-74
2022/03/22 11:28:55;;;;;;;;;21.33;19.00;;;;;22.21;19.38;102568.34;5073245;27;45245;-75
2022/03/22 11:31:26;;;;;;;;;18.00;17.00;;;;;22.28;20.07;102567.47;5071533;28;45399;-74
2022/03/22 11:34:11;;;;;;;;;21.00;18.67;;;;;22.26;20.74;102535.13;5076812;28;45330;-73
2022/03/22 11:36:49;;;;;;;;;15.00;14.00;;;;;22.75;20.84;102569.44;5069170;27;45437;-74
2022/03/22 11:42:15;;;;;;;;;18.67;18.33;;;;;22.70;21.25;102542.44;5077778;28;45397;-74
2022/03/22 11:42:17;;;;;;;;;18.33;18.33;;;;;22.30;18.76;102538.75;5070215;28;45375;-74
2022/03/22 11:45:00;;;;;;;;;17.33;14.67;;;;;22.46;21.29;102561.25;5078577;27;45409;-73